Terminal Aerodrome Forecast
Issued by NWS Wilmington, NC

Home | Current Version | Previous Version | Text Only | Print | Product List | Glossary On
Versions: 1 2 3 4 5 6 7 8 9 10 11 12 13 14 15 16 17 18 19 20 21 22 23 24 25 26 27 28 29 30 31 32 33 34 35 36
000
FTUS42 KILM 191359 AAB
TAFMYR
TAF AMD
KMYR 191359Z 1914/2012 19020G28KT 2SM SHRA BKN015 OVC040
     FM191900 18025G35KT P6SM -SHRA VCTS SCT015CB OVC025
     FM192200 19025G35KT 3SM TSRA BKN015CB OVC025
      TEMPO 1922/2002 VRB30G50KT 1SM TSRA OVC012CB
     FM200300 21018G28KT 6SM -SHRA OVC030=

USA.gov is the U.S. government's official web portal to all federal, state and local government web resources and services.